Nickerson, Minnesota
Current Conditions -  °F | °C
As of 1:17 AM on Saturday 25 Oct 2014 (Local Time) from KCOQ Reporting Station
Clear Clear  
Wind Chill: 55°   Ceiling: Unl
Heat Index: 55°   Visibility: 10mi
Dew Point: 34°   Wind: 10mph
Humidity: 44%   Direction: 270°W
Pressure: 29.82"   Gusts: 16mph
Location:  46.5695°N, 92.3576°W
Report Text: KCOQ 250617Z AUTO 27009G14KT 10SM CLR 13/01 A2982 RMK AO2
Loading
Personal Weather Stations






























Interactive Weather Map
Tropical Storm Tracking
New forecast layout! Learn more

10-Day Weather Forecast

Advertisements
Track Severe Weather on mobile